createdAt,value
2023-04-18T00:00:07.740Z,85.32
2023-04-18T00:02:39.868Z,85.33
2023-04-18T00:05:07.797Z,84.84
2023-04-18T00:07:35.558Z,84.24
2023-04-18T00:10:04.130Z,85.27
2023-04-18T00:12:32.001Z,85.25
2023-04-18T00:14:58.859Z,84.71
2023-04-18T00:17:28.464Z,83.98
2023-04-18T00:19:58.331Z,83.64
2023-04-18T00:22:25.896Z,83.93
2023-04-18T00:24:52.887Z,84.25
2023-04-18T00:27:20.665Z,82.81
2023-04-18T00:29:48.028Z,82.94
2023-04-18T00:32:16.766Z,83.89
2023-04-18T00:34:43.587Z,84.71
2023-04-18T00:37:13.015Z,85.22
2023-04-18T00:39:42.132Z,84.98
2023-04-18T00:42:09.020Z,84.21
2023-04-18T00:44:35.890Z,84.84
2023-04-18T00:47:02.801Z,85.62
2023-04-18T00:49:29.807Z,84.80
2023-04-18T00:51:57.064Z,84.66
2023-04-18T00:54:24.654Z,85.50
2023-04-18T00:56:54.651Z,85.50
2023-04-18T00:59:22.413Z,86.06
2023-04-18T01:01:49.297Z,85.47
2023-04-18T01:04:16.784Z,85.68
2023-04-18T01:06:45.641Z,85.07
2023-04-18T01:09:14.083Z,85.26
2023-04-18T01:11:40.892Z,85.82
2023-04-18T01:14:09.247Z,85.04
2023-04-18T01:16:37.214Z,84.97
2023-04-18T01:19:05.860Z,85.48
2023-04-18T01:21:37.545Z,85.09
2023-04-18T01:24:08.372Z,85.65
2023-04-18T01:26:35.256Z,86.09
2023-04-18T01:29:05.187Z,86.23
2023-04-18T01:31:39.750Z,86.62
2023-04-18T01:34:07.707Z,86.88
2023-04-18T01:36:36.060Z,86.53
2023-04-18T01:39:03.073Z,87.00
2023-04-18T01:41:32.733Z,86.44
2023-04-18T01:44:00.342Z,86.51
2023-04-18T01:46:27.866Z,86.71
2023-04-18T01:48:55.288Z,86.65
2023-04-18T01:51:22.210Z,86.80
2023-04-18T01:53:49.362Z,86.61
2023-04-18T01:56:16.087Z,86.85
2023-04-18T01:58:42.961Z,87.17
2023-04-18T02:01:09.831Z,86.33
2023-04-18T02:03:38.807Z,86.26
2023-04-18T02:06:06.597Z,87.16
2023-04-18T02:08:35.947Z,86.84
2023-04-18T02:11:05.183Z,87.31
2023-04-18T02:13:32.173Z,86.75
2023-04-18T02:15:59.030Z,87.31
2023-04-18T02:18:27.212Z,87.40
2023-04-18T02:20:54.162Z,87.00
2023-04-18T02:23:22.430Z,87.08
2023-04-18T02:25:49.486Z,85.92
2023-04-18T02:28:17.682Z,86.49
2023-04-18T02:30:44.787Z,86.14
2023-04-18T02:33:11.902Z,86.64
2023-04-18T02:35:39.912Z,87.02
2023-04-18T02:38:07.134Z,87.22
2023-04-18T02:40:33.859Z,87.92
2023-04-18T02:43:02.146Z,86.86
2023-04-18T02:45:29.432Z,88.36
2023-04-18T02:47:59.147Z,87.52
2023-04-18T02:50:27.158Z,86.82
2023-04-18T02:52:56.134Z,86.62
2023-04-18T02:55:28.160Z,87.28
2023-04-18T02:57:58.597Z,85.93
2023-04-18T03:00:43.383Z,87.10
2023-04-18T03:03:36.650Z,87.44
2023-04-18T03:06:23.757Z,87.29
2023-04-18T03:08:51.854Z,87.37
2023-04-18T03:11:18.837Z,87.63
2023-04-18T03:13:46.094Z,88.47
2023-04-18T03:16:14.324Z,88.44
2023-04-18T03:18:42.335Z,88.39
2023-04-18T03:21:09.230Z,88.30
2023-04-18T03:23:36.795Z,89.08
2023-04-18T03:26:07.131Z,88.67
2023-04-18T03:28:35.931Z,87.89
2023-04-18T03:31:03.248Z,88.99
2023-04-18T03:33:32.612Z,89.32
2023-04-18T03:36:07.657Z,88.99
2023-04-18T03:38:34.781Z,88.77
2023-04-18T03:41:02.941Z,87.86
2023-04-18T03:43:33.686Z,87.15
2023-04-18T03:46:00.963Z,87.24
2023-04-18T03:48:29.126Z,87.79
2023-04-18T03:51:00.081Z,88.25
2023-04-18T03:53:27.003Z,87.54
2023-04-18T03:55:56.420Z,88.49
2023-04-18T03:58:30.365Z,89.71
2023-04-18T04:00:57.189Z,89.84
2023-04-18T04:03:24.018Z,89.97
2023-04-18T04:05:51.103Z,89.37
2023-04-18T04:08:17.962Z,89.33
2023-04-18T04:10:45.582Z,90.27
2023-04-18T04:13:12.533Z,90.81
2023-04-18T04:15:41.108Z,91.15
2023-04-18T04:18:10.260Z,89.65
2023-04-18T04:20:40.614Z,90.44
2023-04-18T04:23:12.749Z,90.98
2023-04-18T04:25:40.852Z,91.10
2023-04-18T04:28:17.530Z,91.55
2023-04-18T04:30:53.903Z,90.20
2023-04-18T04:33:25.132Z,91.21
2023-04-18T04:35:55.528Z,91.09
2023-04-18T04:38:25.593Z,91.84
2023-04-18T04:40:54.056Z,91.79
2023-04-18T04:43:21.704Z,91.48
2023-04-18T04:45:49.662Z,91.26
2023-04-18T04:48:16.859Z,92.22
2023-04-18T04:50:52.398Z,92.24
2023-04-18T04:53:19.555Z,92.24
2023-04-18T04:55:46.693Z,91.55
2023-04-18T04:58:13.809Z,92.47
2023-04-18T05:01:03.263Z,91.96
2023-04-18T05:03:32.069Z,91.37
2023-04-18T05:05:59.677Z,93.27
2023-04-18T05:08:26.864Z,92.30
2023-04-18T05:10:53.626Z,92.07
2023-04-18T05:13:20.557Z,91.64
2023-04-18T05:15:47.475Z,92.30
2023-04-18T05:18:14.456Z,91.45
2023-04-18T05:20:41.257Z,91.60
2023-04-18T05:23:08.076Z,92.41
2023-04-18T05:25:34.852Z,91.10
2023-04-18T05:28:04.514Z,92.00
2023-04-18T05:30:31.407Z,92.99
2023-04-18T05:32:58.316Z,92.10
2023-04-18T05:35:25.260Z,91.19
2023-04-18T05:37:52.167Z,90.87
2023-04-18T05:40:18.986Z,90.79
2023-04-18T05:42:45.768Z,90.70
2023-04-18T05:45:12.730Z,89.98
2023-04-18T05:47:39.480Z,90.76
2023-04-18T05:50:07.404Z,89.89
2023-04-18T05:52:34.394Z,89.41
2023-04-18T05:55:01.289Z,90.27
2023-04-18T05:57:28.078Z,91.03
2023-04-18T05:59:54.899Z,90.31
2023-04-18T06:02:22.316Z,91.22
2023-04-18T06:04:50.022Z,90.66
2023-04-18T06:07:16.905Z,90.00
2023-04-18T06:09:43.783Z,89.54
2023-04-18T06:12:10.862Z,90.71
2023-04-18T06:14:37.685Z,90.79
2023-04-18T06:17:04.542Z,90.53
2023-04-18T06:19:31.479Z,90.25
2023-04-18T06:21:58.291Z,90.12
2023-04-18T06:24:25.289Z,89.58
2023-04-18T06:26:52.281Z,89.56
2023-04-18T06:29:19.150Z,89.94
2023-04-18T06:31:46.788Z,90.82
2023-04-18T06:34:14.163Z,90.72
2023-04-18T06:36:41.109Z,90.76
2023-04-18T06:39:08.165Z,90.34
2023-04-18T06:41:35.063Z,90.27
2023-04-18T06:44:03.413Z,90.62
2023-04-18T06:46:31.696Z,91.93
2023-04-18T06:48:58.820Z,91.65
2023-04-18T06:51:25.618Z,89.86
2023-04-18T06:53:55.784Z,89.93
2023-04-18T06:56:23.024Z,89.68
2023-04-18T06:58:50.039Z,88.92
2023-04-18T07:01:16.945Z,89.38
2023-04-18T07:03:43.888Z,89.09
2023-04-18T07:06:11.108Z,89.63
2023-04-18T07:08:38.373Z,90.15
2023-04-18T07:11:06.745Z,90.25
2023-04-18T07:13:33.634Z,90.08
2023-04-18T07:16:01.685Z,89.40
2023-04-18T07:18:37.433Z,88.69
2023-04-18T07:21:07.871Z,88.64
2023-04-18T07:23:35.674Z,90.11
2023-04-18T07:26:03.256Z,89.16
2023-04-18T07:28:31.222Z,88.40
2023-04-18T07:30:58.395Z,89.41
2023-04-18T07:33:25.326Z,88.20
2023-04-18T07:35:53.215Z,88.28
2023-04-18T07:38:20.412Z,89.21
2023-04-18T07:40:47.218Z,88.60
2023-04-18T07:43:13.997Z,88.65
2023-04-18T07:45:43.384Z,88.84
2023-04-18T07:48:11.403Z,87.69
2023-04-18T07:50:38.355Z,86.30
2023-04-18T07:53:05.259Z,85.39
2023-04-18T07:55:32.038Z,85.19
2023-04-18T07:57:58.962Z,85.38
2023-04-18T08:00:26.384Z,84.67
2023-04-18T08:02:53.407Z,83.69
2023-04-18T08:05:20.547Z,83.88
2023-04-18T08:07:47.407Z,81.78
2023-04-18T08:10:14.158Z,81.40
2023-04-18T08:12:41.235Z,82.00
2023-04-18T08:15:08.802Z,81.64
2023-04-18T08:17:36.127Z,81.15
2023-04-18T08:20:07.328Z,80.10
2023-04-18T08:22:34.266Z,80.46
2023-04-18T08:25:05.451Z,79.82
2023-04-18T08:27:32.910Z,79.27
2023-04-18T08:30:00.789Z,78.66
2023-04-18T08:32:27.818Z,77.95
2023-04-18T08:34:59.114Z,77.37
2023-04-18T08:37:27.889Z,77.15
2023-04-18T08:39:54.735Z,77.60
2023-04-18T08:42:23.012Z,77.38
2023-04-18T08:44:49.944Z,78.19
2023-04-18T08:47:16.725Z,78.68
2023-04-18T08:49:46.835Z,78.82
2023-04-18T08:52:14.747Z,78.33
2023-04-18T08:54:42.883Z,77.71
2023-04-18T08:57:16.774Z,77.41
2023-04-18T08:59:46.337Z,76.96
2023-04-18T09:02:16.344Z,77.04
2023-04-18T09:04:45.432Z,77.35
2023-04-18T09:07:15.391Z,76.24
2023-04-18T09:09:47.850Z,76.18
2023-04-18T09:12:22.778Z,74.63
2023-04-18T09:14:51.862Z,75.39
2023-04-18T09:17:36.192Z,75.53
2023-04-18T09:20:09.442Z,74.43
2023-04-18T09:23:03.967Z,74.51
2023-04-18T09:25:39.830Z,75.41
2023-04-18T09:28:30.755Z,75.04
2023-04-18T09:31:17.848Z,74.06
2023-04-18T09:33:56.917Z,73.23
2023-04-18T09:36:27.950Z,74.24
2023-04-18T09:38:56.976Z,72.36
2023-04-18T09:41:24.401Z,72.06
2023-04-18T09:44:09.248Z,71.53
2023-04-18T09:46:37.166Z,70.64
2023-04-18T09:49:04.036Z,70.26
2023-04-18T09:51:31.919Z,70.32
2023-04-18T09:53:58.638Z,67.47
2023-04-18T09:56:26.442Z,67.01
2023-04-18T09:58:59.162Z,67.16
2023-04-18T10:01:29.563Z,66.33
2023-04-18T10:03:57.607Z,66.19
2023-04-18T10:06:27.433Z,62.95
2023-04-18T10:08:55.278Z,63.85
2023-04-18T10:11:22.183Z,63.71
2023-04-18T10:13:49.860Z,63.00
2023-04-18T10:16:17.166Z,63.79
2023-04-18T10:18:44.089Z,63.09
2023-04-18T10:21:11.465Z,65.16
2023-04-18T10:23:39.920Z,66.29
2023-04-18T10:26:11.086Z,66.59
2023-04-18T10:28:57.749Z,65.45
2023-04-18T10:31:26.518Z,66.09
2023-04-18T10:34:06.648Z,63.66
2023-04-18T10:36:33.669Z,63.32
2023-04-18T10:39:03.282Z,63.11
2023-04-18T10:41:32.101Z,60.55
2023-04-18T10:44:08.766Z,61.95
2023-04-18T10:46:43.108Z,60.02
2023-04-18T10:49:16.274Z,61.66
2023-04-18T10:51:46.814Z,59.69
2023-04-18T10:54:24.761Z,57.50
2023-04-18T10:56:55.971Z,57.73
2023-04-18T10:59:24.307Z,57.39
2023-04-18T11:02:00.317Z,57.93
2023-04-18T11:04:27.291Z,56.80
2023-04-18T11:07:00.440Z,57.40
2023-04-18T11:09:27.302Z,56.84
2023-04-18T11:12:08.983Z,56.65
2023-04-18T11:14:45.022Z,54.35
2023-04-18T11:17:22.409Z,54.34
2023-04-18T11:19:50.218Z,54.29
2023-04-18T11:22:17.878Z,52.38
2023-04-18T11:24:45.165Z,54.61
2023-04-18T11:27:12.851Z,54.10
2023-04-18T11:29:39.710Z,55.73
2023-04-18T11:32:07.876Z,54.77
2023-04-18T11:34:36.007Z,52.22
2023-04-18T11:37:07.670Z,53.88
2023-04-18T11:39:36.449Z,55.34
2023-04-18T11:42:03.278Z,54.98
2023-04-18T11:44:30.204Z,55.70
2023-04-18T11:46:57.116Z,53.33
2023-04-18T11:49:32.209Z,55.06
2023-04-18T11:51:59.785Z,56.52
2023-04-18T11:54:56.605Z,56.15
2023-04-18T11:57:25.666Z,57.89
2023-04-18T11:59:59.551Z,58.76
2023-04-18T12:02:50.499Z,58.57
2023-04-18T12:05:29.256Z,59.00
2023-04-18T12:07:57.246Z,59.30
2023-04-18T12:10:27.291Z,57.36
2023-04-18T12:12:55.336Z,58.07
2023-04-18T12:15:28.315Z,57.68
2023-04-18T12:18:03.957Z,57.26
2023-04-18T12:20:34.983Z,57.07
2023-04-18T12:23:02.454Z,55.81
2023-04-18T12:25:29.848Z,54.67
2023-04-18T12:28:01.415Z,53.83
2023-04-18T12:30:32.025Z,51.55
2023-04-18T12:33:01.387Z,54.31
2023-04-18T12:35:28.969Z,54.50
2023-04-18T12:37:57.215Z,53.94
2023-04-18T12:40:26.337Z,50.52
2023-04-18T12:42:54.205Z,50.77
2023-04-18T12:45:22.208Z,48.01
2023-04-18T12:47:50.544Z,48.18
2023-04-18T12:50:23.150Z,48.75
2023-04-18T12:52:52.292Z,46.13
2023-04-18T12:55:19.258Z,43.33
2023-04-18T12:57:46.313Z,44.32
2023-04-18T13:00:13.815Z,45.90
2023-04-18T13:02:43.699Z,45.16
2023-04-18T13:05:12.813Z,43.77
2023-04-18T13:07:43.183Z,41.65
2023-04-18T13:10:12.253Z,41.12
2023-04-18T13:12:40.235Z,40.03
2023-04-18T13:15:08.646Z,38.86
2023-04-18T13:17:38.721Z,40.40
2023-04-18T13:20:07.066Z,38.72
2023-04-18T13:22:34.144Z,40.28
2023-04-18T13:25:00.879Z,40.99
2023-04-18T13:27:27.689Z,39.80
2023-04-18T13:29:55.253Z,38.52
2023-04-18T13:32:22.229Z,37.07
2023-04-18T13:34:49.546Z,36.69
2023-04-18T13:37:16.517Z,37.27
2023-04-18T13:39:43.414Z,36.92
2023-04-18T13:42:10.237Z,38.97
2023-04-18T13:44:37.874Z,39.57
2023-04-18T13:47:06.095Z,38.39
2023-04-18T13:49:33.720Z,36.75
2023-04-18T13:52:00.729Z,37.43
2023-04-18T13:54:29.116Z,37.79
2023-04-18T13:56:57.613Z,36.97
2023-04-18T13:59:25.380Z,37.95
2023-04-18T14:01:52.772Z,35.80
2023-04-18T14:04:23.538Z,35.47
2023-04-18T14:06:50.586Z,35.44
2023-04-18T14:09:18.072Z,36.37
2023-04-18T14:11:45.566Z,37.70
2023-04-18T14:14:12.394Z,37.24
2023-04-18T14:16:39.251Z,35.07
2023-04-18T14:19:06.607Z,37.52
2023-04-18T14:21:33.437Z,37.13
2023-04-18T14:24:00.513Z,33.92
2023-04-18T14:26:27.471Z,34.06
2023-04-18T14:28:54.209Z,33.70
2023-04-18T14:31:21.199Z,33.22
2023-04-18T14:33:47.995Z,32.30
2023-04-18T14:36:17.622Z,34.76
2023-04-18T14:38:48.412Z,33.39
2023-04-18T14:41:15.445Z,32.40
2023-04-18T14:43:42.395Z,30.99
2023-04-18T14:46:13.899Z,30.68
2023-04-18T14:48:40.991Z,30.93
2023-04-18T14:51:08.042Z,31.02
2023-04-18T14:53:35.037Z,31.12
2023-04-18T14:56:01.805Z,31.17
2023-04-18T14:58:28.645Z,30.62
2023-04-18T15:00:55.773Z,31.63
2023-04-18T15:03:22.826Z,30.55
2023-04-18T15:05:49.897Z,30.77
2023-04-18T15:08:16.741Z,31.05
2023-04-18T15:10:44.638Z,29.15
2023-04-18T15:13:12.176Z,29.94
2023-04-18T15:15:39.998Z,30.81
2023-04-18T15:18:08.369Z,30.78
2023-04-18T15:20:37.197Z,29.81
2023-04-18T15:23:04.158Z,29.26
2023-04-18T15:25:31.138Z,28.94
2023-04-18T15:28:14.932Z,28.57
2023-04-18T15:30:41.944Z,28.41
2023-04-18T15:33:08.908Z,29.37
2023-04-18T15:35:36.133Z,30.60
2023-04-18T15:38:03.046Z,29.16
2023-04-18T15:40:30.400Z,28.83
2023-04-18T15:42:59.551Z,28.56
2023-04-18T15:45:26.418Z,28.19
2023-04-18T15:47:53.474Z,27.04
2023-04-18T15:50:20.622Z,27.00
2023-04-18T15:52:47.643Z,28.04
2023-04-18T15:55:14.624Z,27.63
2023-04-18T15:57:41.996Z,25.71
2023-04-18T16:00:17.506Z,25.93
2023-04-18T16:02:45.260Z,25.64
2023-04-18T16:05:13.242Z,26.43
2023-04-18T16:07:41.392Z,25.20
2023-04-18T16:10:10.349Z,26.50
2023-04-18T16:12:38.433Z,25.15
2023-04-18T16:15:06.844Z,24.85
2023-04-18T16:17:33.861Z,23.70
2023-04-18T16:20:00.764Z,25.05
2023-04-18T16:22:28.455Z,25.32
2023-04-18T16:24:55.369Z,24.47
2023-04-18T16:27:22.279Z,25.70
2023-04-18T16:29:49.073Z,24.18
2023-04-18T16:32:15.965Z,24.26
2023-04-18T16:34:42.812Z,24.24
2023-04-18T16:37:09.699Z,25.83
2023-04-18T16:39:36.500Z,26.93
2023-04-18T16:42:03.976Z,25.07
2023-04-18T16:44:30.850Z,24.94
2023-04-18T16:46:57.895Z,25.91
2023-04-18T16:49:25.326Z,25.11
2023-04-18T16:51:52.274Z,24.99
2023-04-18T16:54:19.143Z,27.39
2023-04-18T16:56:46.029Z,25.32
2023-04-18T16:59:12.933Z,25.70
2023-04-18T17:01:39.769Z,25.02
2023-04-18T17:04:06.743Z,25.09
2023-04-18T17:06:34.116Z,25.19
2023-04-18T17:09:00.948Z,24.44
2023-04-18T17:11:27.990Z,25.37
2023-04-18T17:13:54.837Z,25.96
2023-04-18T17:16:21.881Z,25.89
2023-04-18T17:18:48.746Z,29.37
2023-04-18T17:21:15.623Z,30.76
2023-04-18T17:23:42.669Z,32.79
2023-04-18T17:26:10.117Z,34.94
2023-04-18T17:28:37.120Z,34.88
2023-04-18T17:31:04.477Z,36.03
2023-04-18T17:33:31.687Z,37.60
2023-04-18T17:35:59.002Z,40.87
2023-04-18T17:38:25.829Z,42.95
2023-04-18T17:41:02.692Z,44.35
2023-04-18T17:43:29.621Z,45.03
2023-04-18T17:45:59.436Z,47.02
2023-04-18T17:48:26.400Z,49.34
2023-04-18T17:50:56.221Z,48.14
2023-04-18T17:53:23.343Z,49.50
2023-04-18T17:55:52.305Z,50.30
2023-04-18T17:58:19.939Z,51.57
2023-04-18T18:00:46.832Z,52.57
2023-04-18T18:03:15.137Z,52.99
2023-04-18T18:05:44.729Z,52.97
2023-04-18T18:08:11.642Z,53.57
2023-04-18T18:10:39.261Z,55.31
2023-04-18T18:13:06.142Z,55.68
2023-04-18T18:15:33.268Z,54.48
2023-04-18T18:18:00.309Z,55.56
2023-04-18T18:20:27.525Z,58.27
2023-04-18T18:22:55.127Z,55.64
2023-04-18T18:25:21.944Z,56.03
2023-04-18T18:27:49.502Z,55.29
2023-04-18T18:30:17.343Z,55.53
2023-04-18T18:32:44.340Z,55.07
2023-04-18T18:35:11.447Z,58.18
2023-04-18T18:37:38.361Z,55.95
2023-04-18T18:40:07.449Z,56.59
2023-04-18T18:42:34.423Z,57.59
2023-04-18T18:45:01.766Z,58.33
2023-04-18T18:47:30.545Z,60.21
2023-04-18T18:49:57.424Z,60.35
2023-04-18T18:52:24.959Z,61.94
2023-04-18T18:54:51.826Z,62.29
2023-04-18T18:57:18.603Z,61.84
2023-04-18T18:59:45.434Z,62.58
2023-04-18T19:02:12.371Z,60.93
2023-04-18T19:04:39.326Z,61.31
2023-04-18T19:07:06.284Z,61.81
2023-04-18T19:09:33.450Z,59.53
2023-04-18T19:12:01.117Z,61.52
2023-04-18T19:14:27.939Z,62.46
2023-04-18T19:16:55.957Z,63.93
2023-04-18T19:19:22.723Z,63.96
2023-04-18T19:21:50.198Z,64.14
2023-04-18T19:24:17.733Z,64.72
2023-04-18T19:26:44.579Z,65.46
2023-04-18T19:29:14.469Z,64.59
2023-04-18T19:31:43.681Z,65.81
2023-04-18T19:34:10.933Z,66.05
2023-04-18T19:36:38.273Z,65.90
2023-04-18T19:39:05.164Z,66.46
2023-04-18T19:41:32.024Z,65.60
2023-04-18T19:43:59.004Z,66.84
2023-04-18T19:46:26.288Z,67.49
2023-04-18T19:48:53.123Z,68.26
2023-04-18T19:51:20.026Z,67.75
2023-04-18T19:53:46.860Z,69.22
2023-04-18T19:56:15.035Z,67.52
2023-04-18T19:58:46.757Z,68.09
2023-04-18T20:01:14.573Z,68.37
2023-04-18T20:03:41.728Z,68.66
2023-04-18T20:06:08.938Z,70.08
2023-04-18T20:08:38.236Z,69.32
2023-04-18T20:11:09.580Z,69.82
2023-04-18T20:13:37.558Z,71.28
2023-04-18T20:16:05.694Z,70.03
2023-04-18T20:18:33.992Z,69.99
2023-04-18T20:21:00.826Z,69.77
2023-04-18T20:23:28.260Z,69.84
2023-04-18T20:25:55.083Z,70.79
2023-04-18T20:28:22.414Z,70.92
2023-04-18T20:30:49.453Z,72.19
2023-04-18T20:33:16.583Z,73.03
2023-04-18T20:35:44.621Z,70.70
2023-04-18T20:38:12.403Z,72.10
2023-04-18T20:40:39.809Z,71.92
2023-04-18T20:43:10.134Z,72.19
2023-04-18T20:45:42.863Z,72.03
2023-04-18T20:48:10.381Z,72.20
2023-04-18T20:50:40.781Z,66.93
2023-04-18T20:53:08.398Z,69.81
2023-04-18T20:55:35.310Z,71.37
2023-04-18T20:58:02.122Z,71.65
2023-04-18T21:00:29.518Z,72.91
2023-04-18T21:02:56.594Z,73.09
2023-04-18T21:05:23.611Z,73.08
2023-04-18T21:07:50.654Z,74.50
2023-04-18T21:10:17.478Z,75.15
2023-04-18T21:12:44.277Z,74.58
2023-04-18T21:15:11.632Z,74.72
2023-04-18T21:17:38.606Z,75.21
2023-04-18T21:20:06.430Z,75.58
2023-04-18T21:22:33.235Z,74.57
2023-04-18T21:25:00.120Z,75.42
2023-04-18T21:27:27.010Z,75.84
2023-04-18T21:29:53.978Z,76.11
2023-04-18T21:32:21.162Z,74.87
2023-04-18T21:34:47.982Z,74.96
2023-04-18T21:37:14.829Z,75.60
2023-04-18T21:39:42.617Z,75.37
2023-04-18T21:42:11.248Z,75.91
2023-04-18T21:44:38.116Z,74.70
2023-04-18T21:47:04.931Z,72.09
2023-04-18T21:49:31.866Z,75.84
2023-04-18T21:51:58.752Z,77.25
2023-04-18T21:54:25.552Z,73.59
2023-04-18T21:56:52.353Z,75.55
2023-04-18T21:59:19.108Z,76.37
2023-04-18T22:01:45.950Z,73.54
2023-04-18T22:04:14.729Z,74.20
2023-04-18T22:06:41.998Z,77.55
2023-04-18T22:09:09.037Z,78.70
2023-04-18T22:11:35.807Z,79.02
2023-04-18T22:14:02.510Z,76.60
2023-04-18T22:16:29.283Z,76.31
2023-04-18T22:18:56.268Z,76.32
2023-04-18T22:21:23.104Z,76.87
2023-04-18T22:23:49.961Z,78.14
2023-04-18T22:26:16.861Z,79.34
2023-04-18T22:28:43.651Z,78.92
2023-04-18T22:31:10.479Z,79.80
2023-04-18T22:33:37.338Z,79.94
2023-04-18T22:36:04.447Z,80.60
2023-04-18T22:38:31.186Z,80.22
2023-04-18T22:40:59.435Z,77.22
2023-04-18T22:43:26.975Z,76.97
2023-04-18T22:45:53.845Z,78.27
2023-04-18T22:48:20.765Z,80.57
2023-04-18T22:50:47.670Z,79.72
2023-04-18T22:53:15.224Z,82.36
2023-04-18T22:55:43.685Z,79.81
2023-04-18T22:58:10.857Z,82.02
2023-04-18T23:00:37.720Z,80.73
2023-04-18T23:03:04.795Z,81.30
2023-04-18T23:05:31.864Z,81.50
2023-04-18T23:08:00.387Z,81.32
2023-04-18T23:10:27.797Z,80.92
2023-04-18T23:12:54.589Z,81.18
2023-04-18T23:15:22.883Z,82.30
2023-04-18T23:17:54.533Z,81.82
2023-04-18T23:20:21.883Z,82.08
2023-04-18T23:22:51.577Z,80.53
2023-04-18T23:25:19.800Z,81.07
2023-04-18T23:27:47.079Z,80.73
2023-04-18T23:30:14.200Z,83.40
2023-04-18T23:32:41.010Z,84.16
2023-04-18T23:35:08.239Z,82.91
2023-04-18T23:37:35.039Z,82.46
2023-04-18T23:40:02.613Z,82.92
2023-04-18T23:42:29.456Z,82.78
2023-04-18T23:44:57.802Z,82.13
2023-04-18T23:47:24.554Z,80.84
2023-04-18T23:49:51.414Z,82.08
2023-04-18T23:52:18.213Z,81.04
2023-04-18T23:54:45.789Z,80.50
2023-04-18T23:57:13.882Z,80.21
2023-04-18T23:59:40.693Z,80.49
